Em Athens — V7US8 — position and weather

sailwx.info

Track history (hours):
 
Tides and Currents Weather Stations Pressure Air Temp Water Temp Dewpoint Dewpoint Depression Visibility Wind Speed Wind Dir Waves Ship Positions

Em Athens

Last reported at 2016-May-04 06:29 UTC. Time now 2016-May-04 15:31 UTC.
Position N 37°12' W 001°06'.

Length 207 m; draft 10.3 m.

Type: Ship (hazmat cat C). MMSI: 538004019.

Date/timePositionNaut miles runAvg speedWind from/ knotsBaromVisibWave heightAir tempDewpointWater temp
2016-May-04 06:29N 37°12' W 001°06'1515.8
2016-May-04 05:33N 37°22' W 000°52'1616.1
2016-May-04 04:33N 37°32' W 000°36'1615.8
2016-May-04 03:34N 37°45' W 000°25'1616.0
2016-May-04 02:34N 37°58' W 000°14'1615.6
2016-May-04 01:33N 38°12' W 000°03'1615.5
2016-May-04 00:33N 38°25' E 000°08'2116.0
2016-May-03 23:15N 38°42' E 000°22'4515.5
2016-May-03 20:21N 39°22' W 000°05'1114.0
2016-May-03 19:33N 39°26' W 000°18'1 1.5
2016-May-03 18:33N 39°27' W 000°19'0 0.0
2016-May-03 17:33N 39°27' W 000°19'0 0.0
2016-May-03 16:33N 39°27' W 000°19'0 0.0
2016-May-03 15:33N 39°27' W 000°19'0 0.0
2016-May-03 14:33N 39°27' W 000°19'0 0.0
2016-May-03 13:33N 39°27' W 000°19'0 0.0
2016-May-03 12:33N 39°27' W 000°19'0 0.0
2016-May-03 11:33N 39°27' W 000°19'0 0.0
2016-May-03 10:33N 39°27' W 000°19'0 0.0
2016-May-03 09:33N 39°27' W 000°19'0 0.0
2016-May-03 08:33N 39°27' W 000°19'0 0.0
2016-May-03 07:30N 39°27' W 000°19'0 0.0
2016-May-03 06:30N 39°27' W 000°19'0 0.0
2016-May-03 05:33N 39°27' W 000°19'0 0.0
2016-May-03 04:24N 39°27' W 000°19'0 0.4
2016-May-03 03:33N 39°27' W 000°19'5 4.1
2016-May-03 02:28N 39°23' W 000°16'0 0.0
2016-May-03 00:16N 39°23' W 000°16'0 0.0
2016-May-02 18:04N 39°23' W 000°16'0 0.0
2016-May-02 17:28N 39°23' W 000°16'0 0.0
2016-May-02 16:16N 39°23' W 000°16'0 0.0
2016-May-02 15:28N 39°23' W 000°16'0 0.0
2016-May-02 14:22N 39°23' W 000°16'0 0.0
2016-May-02 04:16N 39°23' W 000°16'0 0.0
2016-May-02 02:28N 39°23' W 000°16'0 0.0
2016-May-01 19:31N 39°23' W 000°16'0 0.0
2016-May-01 17:18N 39°23' W 000°16'0 0.0
2016-May-01 16:33N 39°23' W 000°16'0 0.0
2016-May-01 12:16N 39°23' W 000°16'1 0.2
2016-May-01 06:33N 39°23' W 000°14'7211.9
2016-May-01 00:31N 39°59' E 001°06'1614.2
2016-Apr-30 23:23N 40°12' E 001°18'4114.3
2016-Apr-30 20:33N 40°47' E 001°46'1514.3
2016-Apr-30 19:31N 40°59' E 001°57'176 8.0
2016-Apr-29 21:33N 42°24' E 005°23'1614.6
2016-Apr-29 20:28N 42°29' E 005°43'10414.3
2016-Apr-29 13:12N 43°04' E 007°57'914.5
2016-Apr-29 12:33N 43°07' E 008°09'3314.5
2016-Apr-29 10:16N 43°16' E 008°52'1014.5
2016-Apr-29 09:33N 43°19' E 009°06'1414.4
2016-Apr-29 08:33N 43°24' E 009°25'2019.6
2016-Apr-29 07:34N 43°29' E 009°50'1515.0
2016-Apr-29 06:33N 43°31' E 010°11'6 6.2
2016-Apr-29 05:32N 43°34' E 010°18'0 0.0
2016-Apr-29 04:32N 43°34' E 010°18'0 0.0
2016-Apr-29 03:32N 43°34' E 010°18'0 0.0
2016-Apr-29 02:32N 43°34' E 010°18'0 0.0
2016-Apr-29 01:32N 43°34' E 010°18'0 0.0
2016-Apr-29 00:32N 43°34' E 010°18'0 0.0
2016-Apr-28 23:32N 43°34' E 010°18'0 0.0
2016-Apr-28 22:32N 43°34' E 010°18'0 0.1
2016-Apr-28 21:33N 43°34' E 010°18'4 4.3
2016-Apr-28 20:33N 43°30' E 010°16'0 0.1
2016-Apr-28 19:32N 43°30' E 010°16'0 0.0
2016-Apr-28 18:32N 43°30' E 010°16'0 0.1
2016-Apr-28 17:32N 43°30' E 010°16'0 0.0
2016-Apr-28 16:32N 43°30' E 010°16'0 0.0
2016-Apr-28 15:32N 43°30' E 010°16'0 0.0
2016-Apr-28 14:32N 43°30' E 010°16'0 0.0
2016-Apr-28 13:32N 43°30' E 010°16'0 0.0
2016-Apr-28 12:32N 43°30' E 010°16'0 0.0
2016-Apr-28 11:32N 43°30' E 010°16'0 0.0
2016-Apr-28 10:32N 43°30' E 010°16'0 0.0
2016-Apr-28 09:29N 43°30' E 010°16'0 0.0
2016-Apr-28 08:32N 43°30' E 010°16'0 0.0
2016-Apr-28 07:32N 43°30' E 010°16'0 0.1
2016-Apr-28 06:32N 43°30' E 010°16'0 0.0
2016-Apr-28 05:32N 43°30' E 010°16'0 0.0
2016-Apr-28 04:32N 43°30' E 010°16'0 0.1
2016-Apr-28 03:32N 43°30' E 010°16'0 0.0
2016-Apr-28 02:32N 43°30' E 010°16'0 0.0
2016-Apr-28 01:32N 43°30' E 010°16'0 0.0
2016-Apr-28 00:32N 43°30' E 010°16'0 0.0
2016-Apr-27 23:32N 43°30' E 010°16'0 0.0
2016-Apr-27 22:32N 43°30' E 010°16'0 0.0
2016-Apr-27 21:32N 43°30' E 010°16'0 0.0
2016-Apr-27 20:33N 43°30' E 010°16'2 1.6
2016-Apr-27 19:33N 43°30' E 010°14'1211.9
2016-Apr-27 18:33N 43°31' E 009°58'8 7.6
2016-Apr-27 17:34N 43°32' E 009°47'2 2.2
2016-Apr-27 16:34N 43°32' E 009°50'5 5.3
2016-Apr-27 15:34N 43°37' E 009°50'1414.1
2016-Apr-27 14:33N 43°47' E 009°36'1413.8
2016-Apr-27 13:33N 43°56' E 009°22'1413.8
2016-Apr-27 12:34N 44°06' E 009°08'1414.3
2016-Apr-27 11:34N 44°18' E 008°59'7 6.7
2016-Apr-27 10:32N 44°24' E 008°54'0 0.0
2016-Apr-27 09:32N 44°24' E 008°54'0 0.0
2016-Apr-27 08:32N 44°24' E 008°54'0 0.0
2016-Apr-27 07:26N 44°24' E 008°54'0 0.0
2016-Apr-27 06:32N 44°24' E 008°54'0 0.0
2016-Apr-27 05:33N 44°24' E 008°54'0 0.0
2016-Apr-27 04:34N 44°24' E 008°54'3 3.0
2016-Apr-27 03:34N 44°23' E 008°57'3 3.0
2016-Apr-27 02:33N 44°20' E 008°59'4 3.7
2016-Apr-27 01:34N 44°17' E 008°55'0 0.4
2016-Apr-27 00:33N 44°17' E 008°56'0 0.4
2016-Apr-26 23:34N 44°17' E 008°56'1 1.3
2016-Apr-26 22:33N 44°16' E 008°56'2 2.5
2016-Apr-26 21:33N 44°14' E 008°59'1313.5
2016-Apr-26 20:34N 44°04' E 009°10'1413.7
2016-Apr-26 19:33N 43°54' E 009°25'1313.0
2016-Apr-26 18:33N 43°45' E 009°38'1312.7
2016-Apr-26 17:33N 43°37' E 009°50'1212.2
2016-Apr-26 16:33N 43°31' E 010°05'8 7.6
2016-Apr-26 15:31N 43°30' E 010°16'0 0.1
2016-Apr-26 14:31N 43°30' E 010°16'0 0.0
2016-Apr-26 13:31N 43°30' E 010°16'0 0.0
2016-Apr-26 12:31N 43°30' E 010°16'0 0.0
2016-Apr-26 11:28N 43°30' E 010°16'0 0.0
2016-Apr-26 10:28N 43°30' E 010°16'0 0.0
2016-Apr-26 09:16N 43°30' E 010°16'0 0.0
2016-Apr-26 08:31N 43°30' E 010°16'0 0.1
2016-Apr-26 07:31N 43°30' E 010°16'0 0.1
2016-Apr-26 06:31N 43°30' E 010°16'0 0.0
2016-Apr-26 05:28N 43°30' E 010°16'0 0.0
2016-Apr-26 04:28N 43°30' E 010°16'0 0.0
2016-Apr-26 03:31N 43°30' E 010°16'0 0.0
2016-Apr-26 02:31N 43°30' E 010°16'0 0.0
2016-Apr-26 01:31N 43°30' E 010°16'0 0.0
2016-Apr-26 00:31N 43°30' E 010°16'0 0.1
2016-Apr-25 23:31N 43°30' E 010°16'0 0.1
2016-Apr-25 22:28N 43°30' E 010°16'0 0.0
2016-Apr-25 21:31N 43°30' E 010°16'0 0.0
2016-Apr-25 20:31N 43°30' E 010°16'0 0.0
2016-Apr-25 19:31N 43°30' E 010°16'0 0.0
2016-Apr-25 18:31N 43°30' E 010°16'0 0.0
2016-Apr-25 17:28N 43°30' E 010°16'0 0.0
2016-Apr-25 16:28N 43°30' E 010°16'0 0.3
2016-Apr-25 15:33N 43°30' E 010°17'10 9.6
2016-Apr-25 14:33N 43°22' E 010°10'33913.4
2016-Apr-24 13:17N 37°53' E 011°58'1216.7
2016-Apr-24 12:32N 37°43' E 012°09'1515.5
2016-Apr-24 11:33N 37°32' E 012°22'  
Track history (hours):
 
Tides and Currents Weather Stations Pressure Air Temp Water Temp Dewpoint Dewpoint Depression Visibility Wind Speed Wind Dir Waves Ship Positions

Em Athens

Last reported at 2016-May-04 06:29 UTC. Time now 2016-May-04 15:31 UTC.
Position N 37°12' W 001°06'.

Length 207 m; draft 10.3 m.

Type: Ship (hazmat cat C). MMSI: 538004019.

Date/timePositionNaut miles runAvg speedWind from/ knotsBaromVisibWave heightAir tempDewpointWater temp
2016-May-04 06:29N 37°12' W 001°06'1515.8
2016-May-04 05:33N 37°22' W 000°52'1616.1
2016-May-04 04:33N 37°32' W 000°36'1615.8
2016-May-04 03:34N 37°45' W 000°25'1616.0
2016-May-04 02:34N 37°58' W 000°14'1615.6
2016-May-04 01:33N 38°12' W 000°03'1615.5
2016-May-04 00:33N 38°25' E 000°08'2116.0
2016-May-03 23:15N 38°42' E 000°22'4515.5
2016-May-03 20:21N 39°22' W 000°05'1114.0
2016-May-03 19:33N 39°26' W 000°18'1 1.5
2016-May-03 18:33N 39°27' W 000°19'0 0.0
2016-May-03 17:33N 39°27' W 000°19'0 0.0
2016-May-03 16:33N 39°27' W 000°19'0 0.0
2016-May-03 15:33N 39°27' W 000°19'0 0.0
2016-May-03 14:33N 39°27' W 000°19'0 0.0
2016-May-03 13:33N 39°27' W 000°19'0 0.0
2016-May-03 12:33N 39°27' W 000°19'0 0.0
2016-May-03 11:33N 39°27' W 000°19'0 0.0
2016-May-03 10:33N 39°27' W 000°19'0 0.0
2016-May-03 09:33N 39°27' W 000°19'0 0.0
2016-May-03 08:33N 39°27' W 000°19'0 0.0
2016-May-03 07:30N 39°27' W 000°19'0 0.0
2016-May-03 06:30N 39°27' W 000°19'0 0.0
2016-May-03 05:33N 39°27' W 000°19'0 0.0
2016-May-03 04:24N 39°27' W 000°19'0 0.4
2016-May-03 03:33N 39°27' W 000°19'5 4.1
2016-May-03 02:28N 39°23' W 000°16'0 0.0
2016-May-03 00:16N 39°23' W 000°16'0 0.0
2016-May-02 18:04N 39°23' W 000°16'0 0.0
2016-May-02 17:28N 39°23' W 000°16'0 0.0
2016-May-02 16:16N 39°23' W 000°16'0 0.0
2016-May-02 15:28N 39°23' W 000°16'0 0.0
2016-May-02 14:22N 39°23' W 000°16'0 0.0
2016-May-02 04:16N 39°23' W 000°16'0 0.0
2016-May-02 02:28N 39°23' W 000°16'0 0.0
2016-May-01 19:31N 39°23' W 000°16'0 0.0
2016-May-01 17:18N 39°23' W 000°16'0 0.0
2016-May-01 16:33N 39°23' W 000°16'0 0.0
2016-May-01 12:16N 39°23' W 000°16'1 0.2
2016-May-01 06:33N 39°23' W 000°14'7211.9
2016-May-01 00:31N 39°59' E 001°06'1614.2
2016-Apr-30 23:23N 40°12' E 001°18'4114.3
2016-Apr-30 20:33N 40°47' E 001°46'1514.3
2016-Apr-30 19:31N 40°59' E 001°57'176 8.0
2016-Apr-29 21:33N 42°24' E 005°23'1614.6
2016-Apr-29 20:28N 42°29' E 005°43'10414.3
2016-Apr-29 13:12N 43°04' E 007°57'914.5
2016-Apr-29 12:33N 43°07' E 008°09'3314.5
2016-Apr-29 10:16N 43°16' E 008°52'1014.5
2016-Apr-29 09:33N 43°19' E 009°06'1414.4
2016-Apr-29 08:33N 43°24' E 009°25'2019.6
2016-Apr-29 07:34N 43°29' E 009°50'1515.0
2016-Apr-29 06:33N 43°31' E 010°11'6 6.2
2016-Apr-29 05:32N 43°34' E 010°18'0 0.0
2016-Apr-29 04:32N 43°34' E 010°18'0 0.0
2016-Apr-29 03:32N 43°34' E 010°18'0 0.0
2016-Apr-29 02:32N 43°34' E 010°18'0 0.0
2016-Apr-29 01:32N 43°34' E 010°18'0 0.0
2016-Apr-29 00:32N 43°34' E 010°18'0 0.0
2016-Apr-28 23:32N 43°34' E 010°18'0 0.0
2016-Apr-28 22:32N 43°34' E 010°18'0 0.1
2016-Apr-28 21:33N 43°34' E 010°18'4 4.3
2016-Apr-28 20:33N 43°30' E 010°16'0 0.1
2016-Apr-28 19:32N 43°30' E 010°16'0 0.0
2016-Apr-28 18:32N 43°30' E 010°16'0 0.1
2016-Apr-28 17:32N 43°30' E 010°16'0 0.0
2016-Apr-28 16:32N 43°30' E 010°16'0 0.0
2016-Apr-28 15:32N 43°30' E 010°16'0 0.0
2016-Apr-28 14:32N 43°30' E 010°16'0 0.0
2016-Apr-28 13:32N 43°30' E 010°16'0 0.0
2016-Apr-28 12:32N 43°30' E 010°16'0 0.0
2016-Apr-28 11:32N 43°30' E 010°16'0 0.0
2016-Apr-28 10:32N 43°30' E 010°16'0 0.0
2016-Apr-28 09:29N 43°30' E 010°16'0 0.0
2016-Apr-28 08:32N 43°30' E 010°16'0 0.0
2016-Apr-28 07:32N 43°30' E 010°16'0 0.1
2016-Apr-28 06:32N 43°30' E 010°16'0 0.0
2016-Apr-28 05:32N 43°30' E 010°16'0 0.0
2016-Apr-28 04:32N 43°30' E 010°16'0 0.1
2016-Apr-28 03:32N 43°30' E 010°16'0 0.0
2016-Apr-28 02:32N 43°30' E 010°16'0 0.0
2016-Apr-28 01:32N 43°30' E 010°16'0 0.0
2016-Apr-28 00:32N 43°30' E 010°16'0 0.0
2016-Apr-27 23:32N 43°30' E 010°16'0 0.0
2016-Apr-27 22:32N 43°30' E 010°16'0 0.0
2016-Apr-27 21:32N 43°30' E 010°16'0 0.0
2016-Apr-27 20:33N 43°30' E 010°16'2 1.6
2016-Apr-27 19:33N 43°30' E 010°14'1211.9
2016-Apr-27 18:33N 43°31' E 009°58'8 7.6
2016-Apr-27 17:34N 43°32' E 009°47'2 2.2
2016-Apr-27 16:34N 43°32' E 009°50'5 5.3
2016-Apr-27 15:34N 43°37' E 009°50'1414.1
2016-Apr-27 14:33N 43°47' E 009°36'1413.8
2016-Apr-27 13:33N 43°56' E 009°22'1413.8
2016-Apr-27 12:34N 44°06' E 009°08'1414.3
2016-Apr-27 11:34N 44°18' E 008°59'7 6.7
2016-Apr-27 10:32N 44°24' E 008°54'0 0.0
2016-Apr-27 09:32N 44°24' E 008°54'0 0.0
2016-Apr-27 08:32N 44°24' E 008°54'0 0.0
2016-Apr-27 07:26N 44°24' E 008°54'0 0.0
2016-Apr-27 06:32N 44°24' E 008°54'0 0.0
2016-Apr-27 05:33N 44°24' E 008°54'0 0.0
2016-Apr-27 04:34N 44°24' E 008°54'3 3.0
2016-Apr-27 03:34N 44°23' E 008°57'3 3.0
2016-Apr-27 02:33N 44°20' E 008°59'4 3.7
2016-Apr-27 01:34N 44°17' E 008°55'0 0.4
2016-Apr-27 00:33N 44°17' E 008°56'0 0.4
2016-Apr-26 23:34N 44°17' E 008°56'1 1.3
2016-Apr-26 22:33N 44°16' E 008°56'2 2.5
2016-Apr-26 21:33N 44°14' E 008°59'1313.5
2016-Apr-26 20:34N 44°04' E 009°10'1413.7
2016-Apr-26 19:33N 43°54' E 009°25'1313.0
2016-Apr-26 18:33N 43°45' E 009°38'1312.7
2016-Apr-26 17:33N 43°37' E 009°50'1212.2
2016-Apr-26 16:33N 43°31' E 010°05'8 7.6
2016-Apr-26 15:31N 43°30' E 010°16'0 0.1
2016-Apr-26 14:31N 43°30' E 010°16'0 0.0
2016-Apr-26 13:31N 43°30' E 010°16'0 0.0
2016-Apr-26 12:31N 43°30' E 010°16'0 0.0
2016-Apr-26 11:28N 43°30' E 010°16'0 0.0
2016-Apr-26 10:28N 43°30' E 010°16'0 0.0
2016-Apr-26 09:16N 43°30' E 010°16'0 0.0
2016-Apr-26 08:31N 43°30' E 010°16'0 0.1
2016-Apr-26 07:31N 43°30' E 010°16'0 0.1
2016-Apr-26 06:31N 43°30' E 010°16'0 0.0
2016-Apr-26 05:28N 43°30' E 010°16'0 0.0
2016-Apr-26 04:28N 43°30' E 010°16'0 0.0
2016-Apr-26 03:31N 43°30' E 010°16'0 0.0
2016-Apr-26 02:31N 43°30' E 010°16'0 0.0
2016-Apr-26 01:31N 43°30' E 010°16'0 0.0
2016-Apr-26 00:31N 43°30' E 010°16'0 0.1
2016-Apr-25 23:31N 43°30' E 010°16'0 0.1
2016-Apr-25 22:28N 43°30' E 010°16'0 0.0
2016-Apr-25 21:31N 43°30' E 010°16'0 0.0
2016-Apr-25 20:31N 43°30' E 010°16'0 0.0
2016-Apr-25 19:31N 43°30' E 010°16'0 0.0
2016-Apr-25 18:31N 43°30' E 010°16'0 0.0
2016-Apr-25 17:28N 43°30' E 010°16'0 0.0
2016-Apr-25 16:28N 43°30' E 010°16'0 0.3
2016-Apr-25 15:33N 43°30' E 010°17'10 9.6
2016-Apr-25 14:33N 43°22' E 010°10'33913.4
2016-Apr-24 13:17N 37°53' E 011°58'1216.7
2016-Apr-24 12:32N 37°43' E 012°09'1515.5
2016-Apr-24 11:33N 37°32' E 012°22'  

Dump ship's entire track history